DAAGDAAV

Guest
Details From DAAG - Alger Houari Boumediene
To DAAV - JIJEL
Flight Number -
Tags generated
Created
Modified
Stats Distance 128 nm / 238 km
Max Altitude 8,800 ft / 2,682 m
Waypoints 3
Social Downloads 3
Likes 0
Share VATSIM

Download

Looking for another format? Having issues loading an existing format? Contact us
Advertisement - Login to hide

Notes

Basic altitude profile: - Ascent Rate: 2500ft/min - Ascent Speed: 250kts - Cruise Altitude: 35000ft - Cruise Speed: 420kts - Descent Rate: 1500ft/min - Descent Speed: 250kts Options: - Use NATs: yes - Use PACOTS: yes - Use low airways: yes - Use high airways: yes

Route

DAAG BJA DAAV

ID Type Via Altitude Latitude Longitude Leg Dist Tot Dist Heading (true) Name
O DAAG APT - 0 ft / 0 m 36.69752˚ 3.21308˚ - 0 nm - Alger Houari Boumediene
BJA NDB - 8,800 ft / 2,682 m 36.70667˚ 5.02472˚ 87 nm 87 nm 89° / 90° BEJAIA NDB
O DAAV APT - 0 ft / 0 m 36.79513˚ 5.87361˚ 41 nm 128 nm 82° / 83° JIJEL

Altitude Profile

Advertisement - Login to hide

DAAG

Details ICAO DAAG (ALG)
Name Alger Houari Boumediene
Region Algeria
Timezone Africa/Algiers (UTC+1.0)
Stats Elevation 82 ft / 25 m (AMSL)
Location 36.697521° 3.213079°
Runways 2
Magnetic Variation 1.101° E

METAR

DAAG 210330Z VRB02KT 2000 BR SCT010 12/12 Q1012

Decode

TAF

TAF DAAG 202300Z 2100/2124 01005KT 8000 FEW013 SCT090 PROB30 TEMPO 2100/2103 4000 -DZ BKN015 PROB40 2103/2108 2000 BR BKN010 PROB30 TEMPO 2102/2107 0800 FG BKN008 PROB40 TEMPO 2112/2118 FEW023TCU FEW026CB

Decode

Departure Runways

ID Width Length Bearing (true) Bearing (mag) Surface Threshold Offset Overrun Length
05 197 ft / 60 m 11,459 ft / 3,493 m 52.87° 51.77° Asphalt 0 ft / 0 m 0 ft / 0 m
09 148 ft / 45 m 11,442 ft / 3,487 m 91.75° 90.65° Asphalt 0 ft / 0 m 1,017 ft / 310 m
23 197 ft / 60 m 11,459 ft / 3,493 m 232.89° 231.79° Asphalt 0 ft / 0 m 0 ft / 0 m
27 148 ft / 45 m 11,442 ft / 3,487 m 271.78° 270.68° Asphalt 0 ft / 0 m 0 ft / 0 m

DAAV

Details ICAO DAAV (GJL)
Name JIJEL
Region Algeria
Timezone Africa/Algiers (UTC+1.0)
Stats Elevation 36 ft / 11 m (AMSL)
Location 36.795135° 5.873607°
Runways 1
Magnetic Variation 1.650° E

METAR

DAAV 210300Z 00000KT 6000 FEW013 SCT026 BKN090 15/14 Q1011

Decode

TAF

TAF DAAV 202300Z 2100/2124 VRB02KT 8000 SCT010 SCT090 PROB30 TEMPO 2100/2106 2000 BR BKN010 BECMG 2107/2109 30010KT FEW020TCU

Decode

Destination Runways

ID Width Length Bearing (true) Bearing (mag) Surface Threshold Offset Overrun Length
17 148 ft / 45 m 7,904 ft / 2,409 m 171.05° 169.40° Asphalt 0 ft / 0 m 0 ft / 0 m
35 148 ft / 45 m 7,904 ft / 2,409 m 351.05° 349.40° Asphalt 0 ft / 0 m 0 ft / 0 m

Popular Alternatives